Time;durP1;ratioP1;P1;durP2;ratioP2;P2;SDS_P1;SDS_P2;PMS_P1;PMS_P2;Temp;Humidity;BMP_temperature;BMP_pressure;BME280_temperature;BME280_humidity;BME280_pressure;Samples;Min_cycle;Max_cycle;Signal;HPM_P1;HPM_P2
2022/11/15 00:00:28;;;;;;;1999.90;999.90;;;10.90;99.90;;;;;;6659906;88;20219;-80
2022/11/15 00:10:29;;;;;;;1999.90;999.90;;;10.80;99.90;;;;;;6647165;88;20227;-81
2022/11/15 00:20:29;;;;;;;1999.90;999.90;;;10.60;99.90;;;;;;6697579;88;20160;-80
2022/11/15 00:30:30;;;;;;;1999.90;999.90;;;10.70;99.90;;;;;;6677744;89;20231;-81
2022/11/15 00:40:32;;;;;;;1999.90;999.90;;;10.90;99.90;;;;;;6677580;89;20191;-80
2022/11/15 00:50:32;;;;;;;1999.90;999.90;;;11.00;99.90;;;;;;6677348;89;20965;-81
2022/11/15 01:00:33;;;;;;;1999.90;999.90;;;11.10;99.90;;;;;;6705734;88;20286;-81
2022/11/15 01:10:33;;;;;;;1999.90;999.90;;;11.20;99.90;;;;;;6709554;88;20198;-80
2022/11/15 01:20:34;;;;;;;1999.90;999.90;;;11.50;99.90;;;;;;6713196;88;20209;-81
2022/11/15 01:30:35;;;;;;;1999.90;999.90;;;11.40;99.90;;;;;;6675970;89;22656;-81
2022/11/15 01:40:36;;;;;;;1999.90;999.90;;;11.50;99.90;;;;;;6676822;88;20196;-81
2022/11/15 01:50:37;;;;;;;1999.90;999.90;;;11.60;99.90;;;;;;6742120;77;20312;-77
2022/11/15 02:00:37;;;;;;;1999.90;999.90;;;11.60;99.90;;;;;;6744068;87;20567;-77
2022/11/15 02:10:38;;;;;;;1999.90;999.90;;;11.60;99.90;;;;;;6750653;87;20185;-76
2022/11/15 02:21:14;;;;;;;1999.90;999.90;;;11.70;99.90;;;;;;6754205;87;20682;-76
2022/11/15 02:31:40;;;;;;;1999.90;999.90;;;11.80;99.90;;;;;;6754497;87;20270;-76
2022/11/15 02:42:03;;;;;;;1999.90;999.90;;;11.80;99.90;;;;;;6748291;87;20173;-77
2022/11/15 02:52:04;;;;;;;1999.90;999.90;;;11.80;99.90;;;;;;6751202;87;20274;-77
2022/11/15 03:02:35;;;;;;;1999.90;999.90;;;11.90;99.90;;;;;;6754165;87;20231;-76
2022/11/15 03:12:38;;;;;;;1999.90;999.90;;;11.90;99.90;;;;;;6752877;87;20272;-77
2022/11/15 03:22:43;;;;;;;1999.90;999.90;;;12.00;99.90;;;;;;6749833;87;20185;-77
2022/11/15 03:32:52;;;;;;;1999.90;999.90;;;12.10;99.90;;;;;;6750471;87;20208;-77
2022/11/15 03:43:43;;;;;;;1999.90;999.90;;;12.20;99.90;;;;;;6752924;87;20321;-75
2022/11/15 03:53:43;;;;;;;1999.90;999.90;;;12.20;99.90;;;;;;6751761;87;20176;-77
2022/11/15 04:03:44;;;;;;;1999.90;999.90;;;12.20;99.90;;;;;;6759987;87;20184;-77
2022/11/15 04:13:44;;;;;;;1999.90;999.90;;;12.20;99.90;;;;;;6753740;87;20417;-75
2022/11/15 04:33:52;;;;;;;1999.90;999.90;;;11.80;99.90;;;;;;6752251;87;20219;-77
2022/11/15 04:43:53;;;;;;;1999.90;999.90;;;11.70;99.90;;;;;;6758951;87;20215;-77
2022/11/15 04:53:53;;;;;;;1999.90;999.90;;;11.60;99.90;;;;;;6750662;87;20214;-76
2022/11/15 05:14:13;;;;;;;1999.90;999.90;;;11.80;99.90;;;;;;6753852;87;20199;-76
2022/11/15 05:24:14;;;;;;;1999.90;999.90;;;11.90;99.90;;;;;;6753276;87;20306;-76
2022/11/15 05:34:14;;;;;;;1999.90;999.90;;;11.90;99.90;;;;;;6753799;87;20176;-77
2022/11/15 05:44:18;;;;;;;1999.90;999.90;;;11.70;99.90;;;;;;6750862;87;20192;-76
2022/11/15 05:54:21;;;;;;;1999.90;999.90;;;11.60;99.90;;;;;;6750642;87;20258;-77
2022/11/15 06:04:21;;;;;;;1999.90;999.90;;;11.50;99.90;;;;;;6738999;88;20210;-77
2022/11/15 06:14:22;;;;;;;1999.90;999.90;;;11.30;99.90;;;;;;6730050;88;20204;-76
2022/11/15 06:24:22;;;;;;;1999.90;999.90;;;11.30;99.90;;;;;;6732227;88;20629;-76
2022/11/15 06:34:23;;;;;;;1999.90;999.90;;;11.20;99.90;;;;;;6731294;88;20189;-76
2022/11/15 06:44:23;;;;;;;1999.90;999.90;;;11.20;99.90;;;;;;6730530;88;20211;-77
2022/11/15 06:54:24;;;;;;;1999.90;999.90;;;11.20;99.90;;;;;;6738241;88;20359;-77
2022/11/15 07:04:24;;;;;;;1999.90;999.90;;;11.20;99.90;;;;;;6745747;87;20196;-77
2022/11/15 07:14:25;;;;;;;1999.90;999.90;;;11.20;99.90;;;;;;6746454;87;20208;-78
2022/11/15 07:24:25;;;;;;;1999.90;999.90;;;11.10;99.90;;;;;;6748597;88;20260;-77
2022/11/15 07:34:26;;;;;;;1999.90;999.90;;;11.10;99.90;;;;;;6752005;88;20203;-76
2022/11/15 07:44:26;;;;;;;1999.90;999.90;;;11.00;99.90;;;;;;6753084;88;20212;-76
2022/11/15 07:54:47;;;;;;;1999.90;999.90;;;11.00;99.90;;;;;;6741022;77;20274;-81
2022/11/15 08:04:48;;;;;;;1999.90;999.90;;;10.90;99.90;;;;;;6696538;89;20246;-81
2022/11/15 08:14:48;;;;;;;1999.90;999.90;;;11.10;99.90;;;;;;6690761;89;20210;-81
2022/11/15 08:24:49;;;;;;;1999.90;999.90;;;11.30;99.90;;;;;;6691347;89;20199;-81
2022/11/15 08:34:49;;;;;;;1999.90;999.90;;;11.40;99.90;;;;;;6674771;89;20626;-81
2022/11/15 08:44:50;;;;;;;1999.90;999.90;;;11.70;99.90;;;;;;6677297;89;20272;-79
2022/11/15 08:54:50;;;;;;;1999.90;999.90;;;11.90;99.90;;;;;;6676412;89;20630;-81
2022/11/15 09:04:51;;;;;;;1999.90;999.90;;;12.30;99.90;;;;;;6679735;89;20238;-82
2022/11/15 09:14:52;;;;;;;1999.90;999.90;;;12.60;99.90;;;;;;6678761;88;20215;-80
2022/11/15 09:24:52;;;;;;;1999.90;999.90;;;13.00;99.90;;;;;;6678452;88;20218;-80
2022/11/15 09:34:53;;;;;;;1999.90;999.90;;;13.30;99.90;;;;;;6675926;88;20216;-80
2022/11/15 09:45:22;;;;;;;1999.90;999.90;;;13.80;99.90;;;;;;6680520;88;20217;-81
2022/11/15 09:55:37;;;;;;;1999.90;999.90;;;14.00;99.90;;;;;;6678980;89;20665;-81
2022/11/15 10:05:50;;;;;;;1999.90;999.90;;;14.30;99.90;;;;;;6681746;89;20777;-80
2022/11/15 10:15:53;;;;;;;1999.90;999.90;;;14.30;99.90;;;;;;6683266;89;20316;-80
2022/11/15 10:25:59;;;;;;;1999.90;999.90;;;14.60;99.90;;;;;;6679657;89;20274;-80
2022/11/15 10:36:08;;;;;;;1999.90;999.90;;;14.70;99.90;;;;;;6707716;88;20215;-80
2022/11/15 10:46:24;;;;;;;1999.90;999.90;;;14.90;99.90;;;;;;6639451;89;20317;-80
2022/11/15 10:56:26;;;;;;;1999.90;999.90;;;15.20;99.90;;;;;;6672165;89;20301;-80
2022/11/15 11:06:27;;;;;;;1999.90;999.90;;;15.90;99.90;;;;;;6676007;89;20199;-80
2022/11/15 11:16:52;;;;;;;1999.90;999.90;;;15.50;99.90;;;;;;6670783;89;20209;-79
2022/11/15 11:27:20;;;;;;;1999.90;999.90;;;15.80;99.90;;;;;;6672334;89;20201;-80
2022/11/15 11:37:48;;;;;;;1999.90;999.90;;;15.60;99.90;;;;;;6668911;89;20732;-80
2022/11/15 11:48:07;;;;;;;1999.90;999.90;;;16.00;99.90;;;;;;6671451;89;20238;-80
2022/11/15 11:58:36;;;;;;;1999.90;999.90;;;15.90;99.90;;;;;;6686970;89;20214;-79
2022/11/15 12:08:53;;;;;;;1999.90;999.90;;;15.70;99.90;;;;;;6671963;89;20606;-80
2022/11/15 12:18:56;;;;;;;1999.90;999.90;;;14.90;99.90;;;;;;6674231;89;20213;-80
2022/11/15 12:29:25;;;;;;;1999.90;999.90;;;14.70;99.90;;;;;;6669957;89;20257;-80
2022/11/15 12:40:04;;;;;;;1999.90;999.90;;;14.50;99.90;;;;;;6674550;89;20279;-80
2022/11/15 12:50:11;;;;;;;1999.90;999.90;;;14.50;99.90;;;;;;6671266;89;20208;-81
2022/11/15 13:00:22;;;;;;;1999.90;999.90;;;14.80;99.90;;;;;;6675041;89;20355;-81
2022/11/15 13:10:25;;;;;;;1999.90;999.90;;;14.60;99.90;;;;;;6675318;89;20205;-81
2022/11/15 13:20:31;;;;;;;1999.90;999.90;;;14.50;99.90;;;;;;6675399;89;20328;-80
2022/11/15 13:30:32;;;;;;;1999.90;999.90;;;14.40;99.90;;;;;;6672875;89;20187;-83
2022/11/15 13:40:37;;;;;;;1999.90;999.90;;;14.40;99.90;;;;;;6669050;89;20298;-81
2022/11/15 14:00:43;;;;;;;1999.90;999.90;;;14.60;99.90;;;;;;6725592;87;21293;-80
2022/11/15 14:10:44;;;;;;;1999.90;999.90;;;14.60;99.90;;;;;;6696192;88;20193;-80
2022/11/15 14:20:44;;;;;;;1999.90;999.90;;;14.60;99.90;;;;;;6695869;88;20174;-80
2022/11/15 14:30:46;;;;;;;1999.90;999.90;;;14.70;99.90;;;;;;6698896;88;20196;-80
2022/11/15 14:40:47;;;;;;;1999.90;999.90;;;14.60;99.90;;;;;;6692244;88;20199;-80
2022/11/15 14:50:48;;;;;;;1999.90;999.90;;;14.50;99.90;;;;;;6697697;87;20262;-79
2022/11/15 15:00:48;;;;;;;1999.90;999.90;;;14.50;99.90;;;;;;6708549;88;20184;-77
2022/11/15 15:10:49;;;;;;;1999.90;999.90;;;14.40;99.90;;;;;;6694436;88;20215;-78
2022/11/15 15:21:06;;;;;;;1999.90;999.90;;;14.30;99.90;;;;;;6691504;88;20183;-79
2022/11/15 15:31:09;;;;;;;1999.90;999.90;;;14.30;99.90;;;;;;6688505;87;20212;-78
2022/11/15 15:41:15;;;;;;;1999.90;999.90;;;14.20;99.90;;;;;;6682906;89;20648;-77
2022/11/15 16:01:20;;;;;;;1999.90;999.90;;;14.00;99.90;;;;;;6793186;87;20781;-78
2022/11/15 17:31:53;;;;;;;1999.90;999.90;;;13.60;99.90;;;;;;7130852;78;22029;31
2022/11/15 17:52:01;;;;;;;1999.90;999.90;;;13.50;99.90;;;;;;6762635;88;20192;-77
2022/11/15 18:02:03;;;;;;;1999.90;999.90;;;13.30;99.90;;;;;;6754778;88;20674;-78
2022/11/15 18:12:03;;;;;;;1999.90;999.90;;;12.90;99.90;;;;;;6761514;88;20191;-78
2022/11/15 18:22:06;;;;;;;1999.90;999.90;;;12.70;99.90;;;;;;6767261;88;20234;-78
2022/11/15 18:32:11;;;;;;;1999.90;999.90;;;12.60;99.90;;;;;;6765029;88;20205;-80
2022/11/15 18:42:11;;;;;;;1999.90;999.90;;;12.60;99.90;;;;;;6745985;88;20700;-78
2022/11/15 18:52:12;;;;;;;1999.90;999.90;;;12.30;99.90;;;;;;6748310;88;20219;-79
2022/11/15 19:02:12;;;;;;;1999.90;999.90;;;12.30;99.90;;;;;;6749560;88;20398;-79
2022/11/15 19:12:13;;;;;;;1999.90;999.90;;;12.20;99.90;;;;;;6766654;88;20205;-82
2022/11/15 19:22:13;;;;;;;1999.90;999.90;;;12.30;99.90;;;;;;6769324;87;20263;-80
2022/11/15 19:32:14;;;;;;;1999.90;999.90;;;12.40;99.90;;;;;;6767519;88;21152;-80
2022/11/15 19:42:14;;;;;;;1999.90;999.90;;;12.40;99.90;;;;;;6766959;88;20313;-79
2022/11/15 19:52:35;;;;;;;1999.90;999.90;;;12.40;99.90;;;;;;6764195;77;20766;-79
2022/11/15 20:02:36;;;;;;;1999.90;999.90;;;12.40;99.90;;;;;;6763037;88;20199;-80
2022/11/15 20:12:37;;;;;;;1999.90;999.90;;;12.40;99.90;;;;;;6764436;88;20204;-79
2022/11/15 20:22:38;;;;;;;1999.90;999.90;;;12.30;99.90;;;;;;6765800;88;20188;-80
2022/11/15 20:32:39;;;;;;;1999.90;999.90;;;12.30;99.90;;;;;;6769159;88;20736;-80
2022/11/15 20:42:39;;;;;;;1999.90;999.90;;;12.30;99.90;;;;;;6773168;87;20196;-84
2022/11/15 20:52:40;;;;;;;1999.90;999.90;;;12.30;99.90;;;;;;6772613;87;20180;-83
2022/11/15 21:02:40;;;;;;;1999.90;999.90;;;12.30;99.90;;;;;;6769997;88;20231;-82
2022/11/15 21:12:41;;;;;;;1999.90;999.90;;;12.20;99.90;;;;;;6765557;88;20179;-79
2022/11/15 21:22:41;;;;;;;1999.90;999.90;;;12.10;99.90;;;;;;6763998;88;20202;-81
2022/11/15 21:32:44;;;;;;;1999.90;999.90;;;11.90;99.90;;;;;;6762721;88;20198;-81
2022/11/15 21:42:44;;;;;;;1999.90;999.90;;;11.90;99.90;;;;;;6756446;88;20187;-80
2022/11/15 21:52:45;;;;;;;1999.90;999.90;;;11.90;99.90;;;;;;6757703;88;20288;-80
2022/11/15 22:02:46;;;;;;;1999.90;999.90;;;11.80;99.90;;;;;;6758147;88;20175;-80
2022/11/15 22:12:46;;;;;;;1999.90;999.90;;;11.80;99.90;;;;;;6758003;88;20214;-81
2022/11/15 22:22:47;;;;;;;1999.90;999.90;;;11.70;99.90;;;;;;6759622;88;20180;-79
2022/11/15 22:32:47;;;;;;;1999.90;999.90;;;11.60;99.90;;;;;;6757505;88;20195;-79
2022/11/15 22:42:48;;;;;;;1999.90;999.90;;;11.60;99.90;;;;;;6755725;88;20322;-79
2022/11/15 22:52:49;;;;;;;1999.90;999.90;;;11.60;99.90;;;;;;6756077;88;20207;-79
2022/11/15 23:02:50;;;;;;;1999.90;999.90;;;11.50;99.90;;;;;;6755984;88;20207;-80
2022/11/15 23:23:11;;;;;;;1999.90;999.90;;;11.50;99.90;;;;;;6756139;88;20567;-79
2022/11/15 23:43:33;;;;;;;1999.90;999.90;;;11.50;99.90;;;;;;6740289;88;20231;-79
2022/11/15 23:53:34;;;;;;;1999.90;999.90;;;11.40;99.90;;;;;;6739177;88;20328;-79
